createdAt,value
2023-04-22T00:00:18.322Z,12.65
2023-04-22T00:03:04.184Z,12.66
2023-04-22T00:05:49.532Z,12.61
2023-04-22T00:08:35.193Z,12.54
2023-04-22T00:11:20.626Z,12.53
2023-04-22T00:14:06.076Z,12.47
2023-04-22T00:16:51.337Z,12.45
2023-04-22T00:19:37.352Z,12.42
2023-04-22T00:22:22.789Z,12.41
2023-04-22T00:25:08.747Z,12.37
2023-04-22T00:27:53.957Z,12.33
2023-04-22T00:30:39.313Z,12.33
2023-04-22T00:33:25.061Z,12.27
2023-04-22T00:36:10.422Z,12.25
2023-04-22T00:38:56.974Z,12.24
2023-04-22T00:41:42.904Z,12.20
2023-04-22T00:44:28.315Z,12.21
2023-04-22T00:47:14.035Z,12.14
2023-04-22T00:50:00.521Z,12.12
2023-04-22T00:52:46.143Z,12.14
2023-04-22T00:55:31.460Z,12.07
2023-04-22T00:58:19.039Z,12.05
2023-04-22T01:01:04.564Z,12.03
2023-04-22T01:03:50.811Z,12.02
2023-04-22T01:06:37.464Z,12.03
2023-04-22T01:09:22.727Z,12.01
2023-04-22T01:12:07.994Z,11.97
2023-04-22T01:14:53.363Z,11.96
2023-04-22T01:17:38.702Z,11.91
2023-04-22T01:20:29.357Z,11.91
2023-04-22T01:23:22.422Z,11.90
2023-04-22T01:26:08.035Z,11.87
2023-04-22T01:28:53.611Z,11.83
2023-04-22T01:31:41.863Z,11.83
2023-04-22T01:34:27.091Z,11.82
2023-04-22T01:37:12.437Z,11.80
2023-04-22T01:39:59.114Z,11.77
2023-04-22T01:42:44.302Z,11.76
2023-04-22T01:45:29.977Z,11.73
2023-04-22T01:48:18.416Z,11.69
2023-04-22T01:51:03.818Z,11.69
2023-04-22T01:53:49.426Z,11.70
2023-04-22T01:56:35.538Z,11.65
2023-04-22T01:59:23.483Z,11.62
2023-04-22T02:02:12.203Z,11.61
2023-04-22T02:04:57.911Z,11.56
2023-04-22T02:07:43.561Z,11.55
2023-04-22T02:10:28.687Z,11.54
2023-04-22T02:13:13.861Z,11.53
2023-04-22T02:15:59.168Z,11.47
2023-04-22T02:18:44.481Z,11.46
2023-04-22T02:21:32.302Z,11.44
2023-04-22T02:24:17.411Z,11.42
2023-04-22T02:27:02.940Z,11.45
2023-04-22T02:29:48.283Z,11.45
2023-04-22T02:32:37.360Z,11.43
2023-04-22T02:35:22.716Z,11.42
2023-04-22T02:38:10.694Z,11.41
2023-04-22T02:40:56.123Z,11.40
2023-04-22T02:43:45.926Z,11.35
2023-04-22T02:46:31.180Z,11.31
2023-04-22T02:49:16.492Z,11.30
2023-04-22T02:52:01.757Z,11.29
2023-04-22T02:54:47.147Z,11.26
2023-04-22T02:57:32.565Z,11.24
2023-04-22T03:00:20.795Z,11.22
2023-04-22T03:03:06.512Z,11.19
2023-04-22T03:05:53.009Z,11.18
2023-04-22T03:08:38.247Z,11.12
2023-04-22T03:11:23.664Z,11.11
2023-04-22T03:14:08.901Z,11.06
2023-04-22T03:16:54.139Z,11.05
2023-04-22T03:19:39.964Z,11.05
2023-04-22T03:22:25.294Z,11.05
2023-04-22T03:25:14.782Z,11.09
2023-04-22T03:28:04.356Z,11.09
2023-04-22T03:30:49.824Z,11.06
2023-04-22T03:33:35.229Z,11.03
2023-04-22T03:36:28.184Z,10.99
2023-04-22T03:39:14.356Z,10.96
2023-04-22T03:42:01.775Z,10.92
2023-04-22T03:44:48.486Z,10.91
2023-04-22T03:47:37.591Z,10.88
2023-04-22T03:50:33.973Z,10.87
2023-04-22T03:53:19.897Z,10.80
2023-04-22T03:56:05.452Z,10.77
2023-04-22T03:58:54.518Z,10.77
2023-04-22T04:01:39.851Z,10.77
2023-04-22T04:04:29.374Z,10.75
2023-04-22T04:07:18.890Z,10.75
2023-04-22T04:10:04.817Z,10.72
2023-04-22T04:12:50.422Z,10.68
2023-04-22T04:15:36.826Z,10.67
2023-04-22T04:18:22.155Z,10.64
2023-04-22T04:21:09.112Z,10.60
2023-04-22T04:23:59.548Z,10.61
2023-04-22T04:26:48.954Z,10.63
2023-04-22T04:29:43.151Z,10.63
2023-04-22T04:32:34.246Z,10.63
2023-04-22T04:35:24.063Z,10.65
2023-04-22T04:38:14.343Z,10.68
2023-04-22T04:41:00.205Z,10.67
2023-04-22T04:43:47.594Z,10.67
2023-04-22T04:46:42.068Z,10.68
2023-04-22T04:49:30.587Z,10.63
2023-04-22T04:52:17.691Z,10.61
2023-04-22T04:55:02.971Z,10.63
2023-04-22T04:57:49.580Z,10.64
2023-04-22T05:00:37.154Z,10.65
2023-04-22T05:03:22.278Z,10.71
2023-04-22T05:06:08.220Z,10.79
2023-04-22T05:09:00.024Z,10.87
2023-04-22T05:11:45.180Z,10.93
2023-04-22T05:14:35.505Z,10.97
2023-04-22T05:17:21.090Z,11.03
2023-04-22T05:20:07.740Z,11.00
2023-04-22T05:22:53.763Z,11.05
2023-04-22T05:25:39.328Z,11.16
2023-04-22T05:28:28.373Z,11.29
2023-04-22T05:31:15.802Z,11.30
2023-04-22T05:34:01.193Z,11.33
2023-04-22T05:36:47.263Z,11.40
2023-04-22T05:39:32.816Z,11.34
2023-04-22T05:42:21.164Z,11.42
2023-04-22T05:45:08.556Z,11.45
2023-04-22T05:47:55.715Z,11.55
2023-04-22T05:50:42.997Z,11.71
2023-04-22T05:53:28.446Z,11.83
2023-04-22T05:56:13.958Z,11.95
2023-04-22T05:58:59.194Z,11.96
2023-04-22T06:01:45.074Z,12.06
2023-04-22T06:04:37.642Z,12.14
2023-04-22T06:07:24.273Z,12.18
2023-04-22T06:10:10.226Z,12.36
2023-04-22T06:12:56.047Z,12.45
2023-04-22T06:15:41.444Z,12.57
2023-04-22T06:18:28.289Z,12.59
2023-04-22T06:21:14.130Z,12.73
2023-04-22T06:24:01.195Z,12.72
2023-04-22T06:26:46.675Z,12.81
2023-04-22T06:29:31.974Z,12.94
2023-04-22T06:32:17.524Z,13.03
2023-04-22T06:35:02.743Z,12.96
2023-04-22T06:37:48.412Z,13.07
2023-04-22T06:40:34.985Z,13.24
2023-04-22T06:43:27.067Z,13.44
2023-04-22T06:46:27.376Z,13.65
2023-04-22T06:49:43.686Z,13.81
2023-04-22T06:52:41.039Z,13.95
2023-04-22T06:55:26.545Z,14.07
2023-04-22T06:58:11.551Z,14.14
2023-04-22T07:00:56.974Z,14.22
2023-04-22T07:03:42.426Z,14.36
2023-04-22T07:06:32.958Z,14.40
2023-04-22T07:09:18.766Z,14.60
2023-04-22T07:12:04.445Z,14.82
2023-04-22T07:14:49.633Z,14.95
2023-04-22T07:17:34.867Z,15.10
2023-04-22T07:20:20.204Z,15.30
2023-04-22T07:23:06.431Z,15.24
2023-04-22T07:25:51.611Z,15.42
2023-04-22T07:28:36.870Z,15.53
2023-04-22T07:31:22.099Z,15.65
2023-04-22T07:34:10.512Z,15.63
2023-04-22T07:36:56.049Z,15.55
2023-04-22T07:39:41.614Z,15.56
2023-04-22T07:42:27.196Z,15.73
2023-04-22T07:45:12.369Z,15.88
2023-04-22T07:47:57.560Z,15.84
2023-04-22T07:50:43.888Z,15.95
2023-04-22T07:53:29.090Z,15.99
2023-04-22T07:56:14.394Z,16.10
2023-04-22T07:58:59.551Z,16.16
2023-04-22T08:01:46.497Z,16.22
2023-04-22T08:04:32.005Z,16.32
2023-04-22T08:07:32.494Z,16.56
2023-04-22T08:10:18.697Z,16.66
2023-04-22T08:13:03.948Z,16.70
2023-04-22T08:15:49.360Z,16.95
2023-04-22T08:18:35.288Z,17.10
2023-04-22T08:21:20.956Z,17.34
2023-04-22T08:24:06.470Z,17.49
2023-04-22T08:26:51.797Z,17.52
2023-04-22T08:29:38.066Z,17.55
2023-04-22T08:32:26.214Z,17.64
2023-04-22T08:35:11.465Z,17.81
2023-04-22T08:37:56.798Z,17.87
2023-04-22T08:40:42.422Z,17.83
2023-04-22T08:43:27.788Z,17.79
2023-04-22T08:46:15.471Z,17.87
2023-04-22T08:49:03.930Z,17.90
2023-04-22T08:51:50.000Z,17.95
2023-04-22T08:54:37.383Z,17.96
2023-04-22T08:57:22.511Z,18.19
2023-04-22T09:00:09.462Z,18.22
2023-04-22T09:02:55.194Z,18.42
2023-04-22T09:05:40.911Z,18.50
2023-04-22T09:08:26.658Z,18.40
2023-04-22T09:11:12.229Z,18.29
2023-04-22T09:13:57.714Z,18.39
2023-04-22T09:16:47.817Z,18.53
2023-04-22T09:19:32.812Z,18.76
2023-04-22T09:22:18.447Z,18.85
2023-04-22T09:25:28.806Z,18.89
2023-04-22T09:28:18.660Z,19.08
2023-04-22T09:31:03.961Z,18.91
2023-04-22T09:33:52.900Z,18.82
2023-04-22T09:36:38.736Z,19.00
2023-04-22T09:39:24.063Z,19.12
2023-04-22T09:42:13.835Z,19.31
2023-04-22T09:45:05.889Z,19.39
2023-04-22T09:47:51.423Z,19.44
2023-04-22T09:50:38.499Z,19.43
2023-04-22T09:53:23.896Z,19.36
2023-04-22T09:56:12.861Z,19.39
2023-04-22T09:59:01.446Z,19.57
2023-04-22T10:01:53.164Z,19.66
2023-04-22T10:04:38.586Z,19.88
2023-04-22T10:07:24.640Z,20.10
2023-04-22T10:10:10.439Z,20.02
2023-04-22T10:12:56.778Z,20.07
2023-04-22T10:15:53.508Z,20.01
2023-04-22T10:18:40.866Z,19.87
2023-04-22T10:21:28.137Z,20.14
2023-04-22T10:24:18.344Z,20.01
2023-04-22T10:27:08.620Z,19.95
2023-04-22T10:29:56.894Z,19.99
2023-04-22T10:32:42.641Z,20.06
2023-04-22T10:35:31.702Z,20.17
2023-04-22T10:38:17.160Z,20.18
2023-04-22T10:41:05.886Z,20.17
2023-04-22T10:44:00.111Z,20.20
2023-04-22T10:46:52.121Z,20.38
2023-04-22T10:49:37.644Z,20.44
2023-04-22T10:52:29.669Z,20.51
2023-04-22T10:55:15.382Z,20.44
2023-04-22T10:58:00.674Z,20.61
2023-04-22T11:03:40.448Z,20.40
2023-04-22T11:06:28.142Z,20.53
2023-04-22T11:09:13.540Z,20.72
2023-04-22T11:12:35.918Z,20.81
2023-04-22T11:15:27.061Z,20.81
2023-04-22T11:18:19.476Z,20.79
2023-04-22T11:21:07.150Z,20.78
2023-04-22T11:23:52.966Z,20.75
2023-04-22T11:26:38.626Z,20.91
2023-04-22T11:29:23.977Z,20.97
2023-04-22T11:32:11.664Z,20.99
2023-04-22T11:34:57.929Z,21.12
2023-04-22T11:37:46.168Z,21.10
2023-04-22T11:40:46.788Z,21.11
2023-04-22T11:43:32.845Z,21.14
2023-04-22T11:46:29.217Z,20.99
2023-04-22T11:49:20.745Z,21.10
2023-04-22T11:52:06.195Z,21.04
2023-04-22T11:54:51.895Z,21.18
2023-04-22T11:57:37.318Z,21.23
2023-04-22T12:00:24.407Z,21.20
2023-04-22T12:03:17.493Z,21.22
2023-04-22T12:06:06.432Z,21.17
2023-04-22T12:08:51.481Z,21.27
2023-04-22T12:11:38.791Z,21.33
2023-04-22T12:14:36.251Z,21.30
2023-04-22T12:17:25.356Z,21.21
2023-04-22T12:20:14.673Z,21.36
2023-04-22T12:23:00.297Z,21.44
2023-04-22T12:25:45.408Z,21.51
